createdAt,value
2018-12-19T00:02:47.405Z,51.90
2018-12-19T00:07:52.681Z,46.70
2018-12-19T00:12:57.911Z,43.50
2018-12-19T00:18:03.453Z,41.27
2018-12-19T00:23:08.688Z,45.83
2018-12-19T00:28:13.937Z,41.07
2018-12-19T00:33:19.185Z,46.60
2018-12-19T00:38:31.072Z,35.13
2018-12-19T00:43:36.376Z,37.00
2018-12-19T00:48:41.632Z,41.63
2018-12-19T00:53:46.873Z,47.10
2018-12-19T00:58:52.103Z,42.00
2018-12-19T01:03:57.329Z,39.63
2018-12-19T01:09:02.562Z,43.93
2018-12-19T01:14:07.803Z,46.67
2018-12-19T01:19:13.038Z,43.53
2018-12-19T01:24:18.319Z,45.90
2018-12-19T01:29:23.529Z,41.20
2018-12-19T01:34:28.753Z,44.70
2018-12-19T01:40:58.042Z,35.37
2018-12-19T01:46:03.301Z,43.60
2018-12-19T01:51:08.569Z,45.83
2018-12-19T01:56:13.826Z,40.63
2018-12-19T02:01:19.057Z,41.40
2018-12-19T02:06:24.323Z,38.30
2018-12-19T02:11:29.540Z,37.90
2018-12-19T02:16:34.769Z,44.80
2018-12-19T02:21:40.009Z,44.60
2018-12-19T02:26:45.276Z,42.87
2018-12-19T02:31:50.547Z,48.53
2018-12-19T02:36:55.769Z,38.10
2018-12-19T02:42:01.025Z,34.70
2018-12-19T02:47:06.262Z,42.73
2018-12-19T02:52:11.523Z,37.23
2018-12-19T02:57:16.767Z,30.80
2018-12-19T03:02:21.994Z,33.90
2018-12-19T03:07:27.222Z,37.10
2018-12-19T03:12:32.506Z,30.73
2018-12-19T03:17:37.749Z,31.27
2018-12-19T03:22:42.977Z,32.67
2018-12-19T03:27:48.209Z,37.50
2018-12-19T03:32:53.444Z,29.93
2018-12-19T03:37:58.675Z,39.07
2018-12-19T03:43:03.915Z,31.50
2018-12-19T03:48:09.177Z,35.37
2018-12-19T03:53:14.413Z,38.10
2018-12-19T03:58:19.653Z,32.10
2018-12-19T04:03:24.889Z,35.50
2018-12-19T04:08:30.113Z,30.97
2018-12-19T04:13:35.359Z,37.47
2018-12-19T04:18:40.614Z,38.33
2018-12-19T04:23:45.917Z,37.93
2018-12-19T04:28:51.146Z,37.07
2018-12-19T04:33:56.393Z,34.93
2018-12-19T04:39:01.642Z,32.13
2018-12-19T04:44:06.872Z,33.80
2018-12-19T04:49:12.145Z,34.57
2018-12-19T04:54:17.373Z,34.13
2018-12-19T04:59:22.605Z,41.53
2018-12-19T05:04:27.841Z,39.70
2018-12-19T05:09:33.081Z,37.63
2018-12-19T05:14:38.330Z,39.83
2018-12-19T05:19:43.575Z,41.10
2018-12-19T05:24:48.861Z,36.67
2018-12-19T05:29:54.174Z,44.10
2018-12-19T05:34:59.410Z,46.80
2018-12-19T05:40:05.169Z,46.77
2018-12-19T05:45:10.436Z,49.17
2018-12-19T05:50:15.716Z,49.87
2018-12-19T05:55:20.956Z,51.27
2018-12-19T06:00:26.185Z,61.63
2018-12-19T06:05:31.532Z,51.33
2018-12-19T06:10:36.774Z,58.17
2018-12-19T06:15:42.006Z,56.57
2018-12-19T06:20:47.249Z,52.20
2018-12-19T06:25:52.481Z,60.37
2018-12-19T06:30:57.717Z,52.83
2018-12-19T06:36:02.954Z,45.93
2018-12-19T06:41:08.197Z,59.73
2018-12-19T06:46:13.457Z,62.07
2018-12-19T06:51:19.061Z,63.30
2018-12-19T06:56:24.075Z,57.20
2018-12-19T07:01:29.470Z,52.93
2018-12-19T07:06:34.701Z,53.97
2018-12-19T07:11:39.946Z,57.63
2018-12-19T07:16:45.205Z,52.50
2018-12-19T07:21:50.442Z,51.33
2018-12-19T07:26:55.709Z,48.07
2018-12-19T07:32:00.939Z,45.90
2018-12-19T07:37:06.186Z,49.07
2018-12-19T07:42:11.418Z,55.73
2018-12-19T07:47:16.648Z,54.90
2018-12-19T07:52:21.967Z,46.93
2018-12-19T07:57:29.743Z,50.03
2018-12-19T08:02:35.150Z,49.37
2018-12-19T08:07:40.549Z,51.93
2018-12-19T08:12:45.794Z,48.27
2018-12-19T08:17:51.038Z,47.73
2018-12-19T08:22:56.273Z,49.10
2018-12-19T08:28:01.596Z,46.67
2018-12-19T08:33:06.833Z,57.10
2018-12-19T08:38:12.062Z,47.27
2018-12-19T08:43:17.292Z,51.93
2018-12-19T08:48:22.534Z,52.90
2018-12-19T08:53:27.794Z,49.47
2018-12-19T08:58:33.030Z,47.53
2018-12-19T09:03:38.302Z,47.90
2018-12-19T09:08:43.536Z,49.87
2018-12-19T09:13:48.762Z,56.33
2018-12-19T09:18:53.988Z,59.43
2018-12-19T09:23:59.226Z,47.03
2018-12-19T09:29:04.489Z,51.47
2018-12-19T09:34:09.742Z,61.23
2018-12-19T09:39:14.977Z,51.07
2018-12-19T09:44:20.221Z,52.13
2018-12-19T09:49:25.472Z,50.17
2018-12-19T09:54:30.705Z,50.67
2018-12-19T09:59:35.946Z,46.30
2018-12-19T10:04:41.177Z,52.07
2018-12-19T10:09:47.425Z,47.07
2018-12-19T10:14:52.674Z,54.93
2018-12-19T10:19:57.906Z,45.23
2018-12-19T10:25:08.274Z,44.73
2018-12-19T10:30:14.861Z,44.90
2018-12-19T10:35:20.182Z,42.80
2018-12-19T10:40:25.426Z,47.00
2018-12-19T10:45:30.720Z,45.90
2018-12-19T10:50:36.105Z,43.23
2018-12-19T10:55:41.389Z,42.83
2018-12-19T11:00:51.840Z,47.87
2018-12-19T11:05:57.132Z,40.13
2018-12-19T11:11:02.471Z,37.93
2018-12-19T11:16:07.745Z,37.70
2018-12-19T11:21:13.114Z,43.80
2018-12-19T11:26:18.464Z,44.87
2018-12-19T11:31:23.802Z,44.97
2018-12-19T11:36:29.050Z,39.73
2018-12-19T11:41:38.936Z,34.93
2018-12-19T11:46:39.778Z,38.17
2018-12-19T11:51:45.062Z,36.13
2018-12-19T11:56:50.377Z,41.60
2018-12-19T12:01:55.604Z,38.70
2018-12-19T12:07:00.854Z,41.57
2018-12-19T12:12:06.158Z,35.57
2018-12-19T12:17:11.494Z,33.77
2018-12-19T12:22:16.762Z,33.83
2018-12-19T12:27:21.989Z,37.13
2018-12-19T12:32:27.235Z,29.10
2018-12-19T12:37:32.474Z,33.03
2018-12-19T12:42:37.717Z,32.73
2018-12-19T12:47:42.939Z,31.00
2018-12-19T12:52:48.190Z,28.97
2018-12-19T12:57:53.472Z,27.13
2018-12-19T13:02:58.705Z,30.63
2018-12-19T13:08:04.189Z,27.60
2018-12-19T13:13:09.517Z,37.33
2018-12-19T13:18:15.053Z,31.47
2018-12-19T13:23:20.285Z,34.47
2018-12-19T13:28:25.530Z,32.30
2018-12-19T13:33:30.766Z,34.27
2018-12-19T13:38:36.003Z,34.37
2018-12-19T13:43:41.237Z,27.43
2018-12-19T13:48:46.465Z,33.47
2018-12-19T13:53:51.718Z,33.97
2018-12-19T13:58:56.973Z,33.37
2018-12-19T14:04:02.227Z,29.17
2018-12-19T14:09:08.634Z,28.60
2018-12-19T14:14:13.914Z,34.87
2018-12-19T14:19:19.142Z,31.73
2018-12-19T14:24:24.469Z,31.67
2018-12-19T14:29:29.801Z,34.07
2018-12-19T14:34:35.080Z,29.50
2018-12-19T14:39:40.338Z,31.00
2018-12-19T14:44:45.573Z,34.50
2018-12-19T14:49:50.906Z,32.57
2018-12-19T14:54:56.194Z,33.83
2018-12-19T15:00:01.533Z,34.27
2018-12-19T15:05:06.820Z,32.77
2018-12-19T15:10:12.053Z,35.97
2018-12-19T15:15:17.298Z,38.33
2018-12-19T15:20:22.534Z,38.53
2018-12-19T15:25:27.766Z,31.60
2018-12-19T15:30:33.027Z,34.37
2018-12-19T15:35:38.253Z,35.87
2018-12-19T15:40:43.506Z,39.47
2018-12-19T15:45:48.813Z,34.23
2018-12-19T15:50:54.093Z,39.03
2018-12-19T15:55:59.322Z,34.70
2018-12-19T16:01:04.574Z,37.57
2018-12-19T16:06:09.805Z,36.13
2018-12-19T16:11:15.090Z,37.53
2018-12-19T16:16:20.477Z,36.13
2018-12-19T16:21:25.818Z,33.10
2018-12-19T16:26:31.094Z,36.80
2018-12-19T16:31:36.429Z,38.40
2018-12-19T16:36:41.809Z,34.93
2018-12-19T16:41:47.096Z,43.83
2018-12-19T16:46:52.409Z,39.33
2018-12-19T16:51:57.661Z,37.00
2018-12-19T16:57:03.021Z,35.33
2018-12-19T17:02:08.770Z,36.30
2018-12-19T17:07:14.085Z,31.07
2018-12-19T17:12:19.418Z,36.17
2018-12-19T17:17:24.693Z,37.60
2018-12-19T17:22:30.526Z,33.47
2018-12-19T17:27:36.430Z,36.47
2018-12-19T17:32:42.309Z,32.37
2018-12-19T17:37:48.141Z,37.10
2018-12-19T17:42:59.365Z,29.97
2018-12-19T17:48:00.381Z,36.40
2018-12-19T17:53:06.806Z,38.60
2018-12-19T17:58:12.629Z,38.97
2018-12-19T18:03:18.575Z,38.50
2018-12-19T18:08:24.525Z,34.07
2018-12-19T18:13:30.418Z,37.90
2018-12-19T18:18:36.285Z,33.10
2018-12-19T18:23:42.433Z,38.10
2018-12-19T18:28:48.309Z,35.53
2018-12-19T18:33:54.182Z,37.57
2018-12-19T18:39:00.062Z,36.07
2018-12-19T18:44:05.947Z,41.20
2018-12-19T18:49:12.431Z,32.07
2018-12-19T18:54:18.333Z,34.33
2018-12-19T18:59:24.933Z,35.43
2018-12-19T19:04:31.677Z,39.63
2018-12-19T19:09:37.734Z,39.87
2018-12-19T19:14:43.632Z,35.63
2018-12-19T19:19:49.569Z,34.63
2018-12-19T19:24:55.535Z,35.87
2018-12-19T19:30:01.503Z,37.30
2018-12-19T19:35:08.974Z,39.17
2018-12-19T19:40:14.954Z,37.60
2018-12-19T19:45:20.937Z,34.80
2018-12-19T19:50:26.923Z,37.67
2018-12-19T19:55:32.883Z,32.43
2018-12-19T20:00:39.828Z,37.73
2018-12-19T20:05:45.773Z,38.77
2018-12-19T20:10:51.747Z,35.33
2018-12-19T20:15:58.644Z,35.50
2018-12-19T20:21:04.701Z,34.57
2018-12-19T20:26:10.650Z,37.37
2018-12-19T20:31:16.618Z,38.03
2018-12-19T20:36:22.658Z,36.80
2018-12-19T20:41:29.113Z,38.43
2018-12-19T20:46:35.061Z,34.63
2018-12-19T20:51:41.198Z,41.07
2018-12-19T20:56:47.225Z,35.80
2018-12-19T21:01:53.272Z,42.33
2018-12-19T21:06:59.131Z,46.13
2018-12-19T21:12:05.125Z,39.47
2018-12-19T21:17:16.179Z,37.90
2018-12-19T21:22:22.179Z,42.40
2018-12-19T21:27:28.180Z,45.77
2018-12-19T21:32:34.058Z,43.80
2018-12-19T21:37:40.970Z,37.90
2018-12-19T21:42:46.948Z,43.20
2018-12-19T21:47:52.233Z,45.47
2018-12-19T21:52:57.559Z,37.20
2018-12-19T21:58:02.813Z,45.33
2018-12-19T22:03:09.902Z,42.43
2018-12-19T22:08:16.101Z,41.67
2018-12-19T22:13:20.509Z,47.67
2018-12-19T22:18:30.932Z,46.13
2018-12-19T22:23:36.300Z,45.07
2018-12-19T22:28:41.546Z,45.73
2018-12-19T22:33:46.873Z,50.47
2018-12-19T22:38:52.125Z,44.33
2018-12-19T22:43:57.355Z,53.27
2018-12-19T22:49:02.598Z,47.43
2018-12-19T22:54:07.893Z,52.50
2018-12-19T22:59:13.202Z,51.60
2018-12-19T23:04:18.454Z,43.77
2018-12-19T23:09:23.747Z,45.00
2018-12-19T23:14:28.982Z,48.87
2018-12-19T23:19:34.283Z,43.50
2018-12-19T23:24:39.554Z,46.83
2018-12-19T23:29:44.886Z,45.67
2018-12-19T23:34:50.130Z,47.97
2018-12-19T23:39:55.395Z,51.30
2018-12-19T23:45:00.634Z,50.83
2018-12-19T23:50:06.105Z,48.93
2018-12-19T23:55:11.671Z,47.20
